createdAt,value
2023-03-28T00:02:09.467Z,-0.80
2023-03-28T00:04:37.328Z,-0.80
2023-03-28T00:07:05.483Z,-0.80
2023-03-28T00:09:32.900Z,-0.90
2023-03-28T00:11:59.753Z,-0.90
2023-03-28T00:14:26.603Z,-0.90
2023-03-28T00:16:53.365Z,-0.90
2023-03-28T00:19:20.851Z,-0.90
2023-03-28T00:21:51.077Z,-0.90
2023-03-28T00:24:21.622Z,-1.00
2023-03-28T00:26:54.676Z,-1.00
2023-03-28T00:29:22.957Z,-1.00
2023-03-28T00:31:50.317Z,-1.10
2023-03-28T00:34:17.849Z,-1.10
2023-03-28T00:36:44.825Z,-1.10
2023-03-28T00:39:11.599Z,-1.10
2023-03-28T00:41:41.571Z,-1.20
2023-03-28T00:44:42.270Z,-1.20
2023-03-28T00:47:20.672Z,-1.20
2023-03-28T00:49:52.983Z,-1.30
2023-03-28T00:52:26.625Z,-1.30
2023-03-28T00:54:54.021Z,-1.30
2023-03-28T00:57:20.940Z,-1.40
2023-03-28T00:59:47.744Z,-1.40
2023-03-28T01:04:59.503Z,-1.40
2023-03-28T01:07:35.198Z,-1.40
2023-03-28T01:10:04.468Z,-1.40
2023-03-28T01:12:33.192Z,-1.50
2023-03-28T01:15:01.757Z,-1.50
2023-03-28T01:17:30.743Z,-1.50
2023-03-28T01:20:04.137Z,-1.40
2023-03-28T01:22:56.777Z,-1.40
2023-03-28T01:25:50.041Z,-1.40
2023-03-28T01:28:32.631Z,-1.40
2023-03-28T01:31:16.917Z,-1.30
2023-03-28T01:34:14.750Z,-1.30
2023-03-28T01:36:57.119Z,-1.30
2023-03-28T01:39:45.263Z,-1.30
2023-03-28T01:42:32.074Z,-1.20
2023-03-28T01:45:08.078Z,-1.20
2023-03-28T01:47:41.332Z,-1.20
2023-03-28T01:50:21.030Z,-1.10
2023-03-28T01:53:22.999Z,-1.00
2023-03-28T01:55:58.743Z,-1.00
2023-03-28T01:58:42.347Z,-0.90
2023-03-28T02:01:24.602Z,-0.90
2023-03-28T02:03:58.109Z,-0.80
2023-03-28T02:06:28.083Z,-0.80
2023-03-28T02:08:56.468Z,-0.70
2023-03-28T02:11:26.230Z,-0.80
2023-03-28T02:14:01.415Z,-0.80
2023-03-28T02:16:31.875Z,-0.80
2023-03-28T02:18:59.858Z,-0.80
2023-03-28T02:21:53.710Z,-0.80
2023-03-28T02:24:20.992Z,-0.80
2023-03-28T02:26:47.942Z,-0.90
2023-03-28T02:29:16.699Z,-0.90
2023-03-28T02:31:43.543Z,-0.90
2023-03-28T02:34:11.155Z,-0.90
2023-03-28T02:36:57.448Z,-1.00
2023-03-28T02:39:35.426Z,-1.00
2023-03-28T02:42:29.860Z,-1.00
2023-03-28T02:45:16.026Z,-1.00
2023-03-28T02:48:03.066Z,-1.00
2023-03-28T02:50:57.503Z,-1.00
2023-03-28T02:53:33.396Z,-1.00
2023-03-28T02:56:21.908Z,-1.00
2023-03-28T02:58:55.447Z,-1.00
2023-03-28T03:01:29.325Z,-0.90
2023-03-28T03:03:58.291Z,-0.90
2023-03-28T03:06:25.516Z,-0.90
2023-03-28T03:08:52.261Z,-0.80
2023-03-28T03:11:19.109Z,-0.80
2023-03-28T03:13:45.896Z,-0.80
2023-03-28T03:16:12.812Z,-0.80
2023-03-28T03:18:39.633Z,-0.90
2023-03-28T03:21:06.735Z,-0.90
2023-03-28T03:23:33.515Z,-0.90
2023-03-28T03:26:00.747Z,-1.00
2023-03-28T03:28:27.669Z,-1.00
2023-03-28T03:30:54.361Z,-0.90
2023-03-28T03:33:21.344Z,-0.90
2023-03-28T03:35:48.131Z,-1.00
2023-03-28T03:38:14.930Z,-1.00
2023-03-28T03:40:41.764Z,-1.10
2023-03-28T03:43:08.548Z,-1.10
2023-03-28T03:45:35.575Z,-1.20
2023-03-28T03:48:02.402Z,-1.30
2023-03-28T03:50:29.367Z,-1.30
2023-03-28T03:52:58.031Z,-1.30
2023-03-28T03:55:26.589Z,-1.30
2023-03-28T03:57:53.323Z,-1.30
2023-03-28T04:00:20.275Z,-1.30
2023-03-28T04:02:47.973Z,-1.30
2023-03-28T04:05:14.991Z,-1.30
2023-03-28T04:07:42.254Z,-1.30
2023-03-28T04:10:09.459Z,-1.40
2023-03-28T04:12:36.240Z,-1.40
2023-03-28T04:15:03.329Z,-1.40
2023-03-28T04:17:34.729Z,-1.40
2023-03-28T04:20:12.291Z,-1.50
2023-03-28T04:22:44.905Z,-1.50
2023-03-28T04:25:14.046Z,-1.50
2023-03-28T04:27:47.355Z,-1.50
2023-03-28T04:30:17.654Z,-1.50
2023-03-28T04:32:45.001Z,-1.50
2023-03-28T04:35:12.364Z,-1.50
2023-03-28T04:37:39.111Z,-1.60
2023-03-28T04:40:10.806Z,-1.60
2023-03-28T04:42:40.925Z,-1.70
2023-03-28T04:45:08.854Z,-1.70
2023-03-28T04:47:37.628Z,-1.80
2023-03-28T04:50:04.862Z,-1.90
2023-03-28T04:52:31.684Z,-1.90
2023-03-28T04:54:58.461Z,-2.00
2023-03-28T04:57:25.570Z,-2.00
2023-03-28T04:59:52.343Z,-2.10
2023-03-28T05:02:19.081Z,-2.20
2023-03-28T05:04:45.814Z,-2.20
2023-03-28T05:07:12.543Z,-2.20
2023-03-28T05:09:39.269Z,-2.30
2023-03-28T05:12:06.249Z,-2.30
2023-03-28T05:14:33.517Z,-2.30
2023-03-28T05:17:00.285Z,-2.40
2023-03-28T05:19:27.091Z,-2.40
2023-03-28T05:21:53.845Z,-2.30
2023-03-28T05:24:20.786Z,-2.30
2023-03-28T05:26:47.561Z,-2.30
2023-03-28T05:29:14.302Z,-2.30
2023-03-28T05:31:41.095Z,-2.30
2023-03-28T05:34:07.887Z,-2.20
2023-03-28T05:36:34.644Z,-2.20
2023-03-28T05:39:01.425Z,-2.20
2023-03-28T05:41:28.219Z,-2.20
2023-03-28T05:43:54.932Z,-2.20
2023-03-28T05:46:21.729Z,-2.30
2023-03-28T05:48:49.392Z,-2.20
2023-03-28T05:51:17.077Z,-2.30
2023-03-28T05:53:43.934Z,-2.30
2023-03-28T05:56:10.950Z,-2.30
2023-03-28T05:58:37.676Z,-2.30
2023-03-28T06:01:04.592Z,-2.30
2023-03-28T06:03:32.496Z,-2.30
2023-03-28T06:06:00.075Z,-2.20
2023-03-28T06:08:27.406Z,-2.20
2023-03-28T06:10:54.130Z,-2.20
2023-03-28T06:13:21.493Z,-2.10
2023-03-28T06:15:48.270Z,-2.10
2023-03-28T06:18:15.046Z,-2.00
2023-03-28T06:20:41.849Z,-1.90
2023-03-28T06:23:08.560Z,-1.80
2023-03-28T06:25:35.331Z,-1.80
2023-03-28T06:28:02.202Z,-1.60
2023-03-28T06:30:28.944Z,-1.50
2023-03-28T06:32:55.762Z,-1.40
2023-03-28T06:35:22.555Z,-1.30
2023-03-28T06:37:49.330Z,-1.20
2023-03-28T06:40:16.136Z,-1.00
2023-03-28T06:42:43.280Z,-0.90
2023-03-28T06:45:10.455Z,-0.80
2023-03-28T06:47:37.214Z,-0.60
2023-03-28T06:50:04.420Z,-0.50
2023-03-28T06:52:31.172Z,-0.40
2023-03-28T06:54:59.061Z,-0.20
2023-03-28T06:57:26.097Z,0.00
2023-03-28T06:59:52.897Z,0.10
2023-03-28T07:02:19.673Z,0.20
2023-03-28T07:04:46.480Z,0.40
2023-03-28T07:07:13.259Z,0.40
2023-03-28T07:09:39.990Z,0.70
2023-03-28T07:12:07.163Z,0.60
2023-03-28T07:14:34.132Z,0.60
2023-03-28T07:17:01.222Z,0.80
2023-03-28T07:19:28.086Z,1.20
2023-03-28T07:21:54.846Z,1.10
2023-03-28T07:24:21.580Z,1.40
2023-03-28T07:26:48.279Z,1.50
2023-03-28T07:29:14.998Z,1.70
2023-03-28T07:31:43.032Z,1.90
2023-03-28T07:34:09.972Z,2.20
2023-03-28T07:36:38.403Z,2.00
2023-03-28T07:39:05.713Z,2.00
2023-03-28T07:41:32.501Z,2.00
2023-03-28T07:43:59.484Z,2.20
2023-03-28T07:46:26.398Z,2.50
2023-03-28T07:48:54.953Z,2.80
2023-03-28T07:51:21.892Z,3.00
2023-03-28T07:53:48.689Z,2.90
2023-03-28T07:56:15.496Z,3.20
2023-03-28T07:58:42.460Z,3.20
2023-03-28T08:01:12.570Z,2.90
2023-03-28T08:03:40.479Z,2.60
2023-03-28T08:06:17.033Z,2.10
2023-03-28T08:08:52.014Z,2.00
2023-03-28T08:11:18.779Z,2.50
2023-03-28T08:13:45.534Z,2.90
2023-03-28T08:16:12.397Z,2.80
2023-03-28T08:18:39.270Z,2.60
2023-03-28T08:21:06.374Z,3.00
2023-03-28T08:23:33.115Z,3.10
2023-03-28T08:26:05.109Z,3.00
2023-03-28T08:28:35.961Z,2.80
2023-03-28T08:31:10.653Z,2.80
2023-03-28T08:33:37.859Z,2.70
2023-03-28T08:36:04.804Z,2.60
2023-03-28T08:38:31.623Z,2.80
2023-03-28T08:41:18.039Z,3.30
2023-03-28T08:43:51.450Z,3.20
2023-03-28T08:46:21.856Z,3.10
2023-03-28T08:48:51.946Z,3.30
2023-03-28T08:51:21.388Z,3.70
2023-03-28T08:54:00.877Z,4.00
2023-03-28T08:56:28.632Z,4.70
2023-03-28T08:59:08.438Z,4.00
2023-03-28T09:01:35.735Z,3.40
2023-03-28T09:04:03.751Z,3.90
2023-03-28T09:06:40.077Z,4.30
2023-03-28T09:09:39.197Z,3.80
2023-03-28T09:12:17.747Z,4.10
2023-03-28T09:14:59.769Z,4.30
2023-03-28T09:17:34.860Z,4.30
2023-03-28T09:20:20.404Z,4.00
2023-03-28T09:23:20.965Z,4.60
2023-03-28T09:26:06.521Z,4.40
2023-03-28T09:28:41.505Z,4.40
2023-03-28T09:31:11.693Z,4.40
2023-03-28T09:33:42.946Z,4.30
2023-03-28T09:36:21.849Z,4.60
2023-03-28T09:38:54.841Z,5.10
2023-03-28T09:41:42.095Z,5.80
2023-03-28T09:44:14.922Z,5.60
2023-03-28T09:46:48.713Z,5.40
2023-03-28T09:49:19.223Z,5.10
2023-03-28T09:51:46.925Z,4.70
2023-03-28T09:54:14.338Z,4.60
2023-03-28T09:56:47.000Z,4.40
2023-03-28T09:59:29.189Z,4.40
2023-03-28T10:01:58.879Z,4.10
2023-03-28T10:04:28.806Z,4.30
2023-03-28T10:07:19.637Z,6.20
2023-03-28T10:10:16.622Z,7.50
2023-03-28T10:12:48.994Z,6.10
2023-03-28T10:15:41.421Z,5.80
2023-03-28T10:18:15.398Z,5.30
2023-03-28T10:20:42.297Z,4.80
2023-03-28T10:23:13.323Z,5.20
2023-03-28T10:25:43.013Z,6.60
2023-03-28T10:28:17.666Z,7.70
2023-03-28T10:30:52.122Z,6.70
2023-03-28T10:33:20.958Z,5.90
2023-03-28T10:36:09.768Z,5.50
2023-03-28T10:38:48.775Z,5.20
2023-03-28T10:41:25.984Z,4.90
2023-03-28T10:43:53.962Z,5.00
2023-03-28T10:46:30.786Z,6.20
2023-03-28T10:49:17.009Z,6.10
2023-03-28T10:51:44.284Z,5.80
2023-03-28T10:54:19.199Z,5.80
2023-03-28T10:57:16.197Z,5.80
2023-03-28T11:00:07.323Z,5.70
2023-03-28T11:02:53.670Z,5.60
2023-03-28T11:05:35.486Z,5.50
2023-03-28T11:08:02.201Z,5.60
2023-03-28T11:10:37.620Z,5.50
2023-03-28T11:13:26.610Z,5.70
2023-03-28T11:15:56.313Z,7.00
2023-03-28T11:18:56.033Z,7.40
2023-03-28T11:21:54.302Z,8.80
2023-03-28T11:24:41.662Z,9.00
2023-03-28T11:27:28.642Z,9.00
2023-03-28T11:30:19.179Z,9.00
2023-03-28T11:32:49.963Z,7.90
2023-03-28T11:35:34.597Z,7.20
2023-03-28T11:38:14.441Z,7.50
2023-03-28T11:40:56.232Z,7.80
2023-03-28T11:43:38.651Z,8.80
2023-03-28T11:46:13.009Z,9.60
2023-03-28T11:49:00.940Z,9.90
2023-03-28T11:51:45.878Z,10.20
2023-03-28T11:54:19.042Z,10.00
2023-03-28T11:57:12.708Z,10.00
2023-03-28T11:59:48.339Z,9.50
2023-03-28T12:02:30.640Z,9.50
2023-03-28T12:05:03.090Z,8.70
2023-03-28T12:07:59.595Z,8.30
2023-03-28T12:10:38.163Z,8.40
2023-03-28T12:13:44.437Z,7.90
2023-03-28T12:16:20.958Z,8.80
2023-03-28T12:18:58.666Z,9.30
2023-03-28T12:21:31.010Z,9.20
2023-03-28T12:24:16.650Z,8.70
2023-03-28T12:27:04.777Z,8.70
2023-03-28T12:29:49.624Z,8.70
2023-03-28T12:32:35.108Z,8.90
2023-03-28T12:35:28.124Z,9.70
2023-03-28T12:38:01.543Z,10.10
2023-03-28T12:40:52.040Z,9.80
2023-03-28T12:43:30.566Z,9.30
2023-03-28T12:46:02.203Z,9.40
2023-03-28T12:48:42.569Z,9.80
2023-03-28T12:51:14.930Z,10.00
2023-03-28T12:54:09.227Z,9.70
2023-03-28T12:56:36.261Z,10.20
2023-03-28T12:59:35.378Z,10.00
2023-03-28T13:02:23.330Z,9.80
2023-03-28T13:05:19.810Z,9.80
2023-03-28T13:08:06.470Z,10.10
2023-03-28T13:10:42.730Z,10.60
2023-03-28T13:13:19.584Z,10.30
2023-03-28T13:15:56.581Z,10.30
2023-03-28T13:18:29.870Z,10.30
2023-03-28T13:20:57.664Z,9.70
2023-03-28T13:23:37.173Z,9.50
2023-03-28T13:26:08.224Z,9.80
2023-03-28T13:28:46.583Z,9.70
2023-03-28T13:31:20.832Z,10.80
2023-03-28T13:33:59.726Z,11.10
2023-03-28T13:36:29.174Z,11.00
2023-03-28T13:39:08.138Z,10.80
2023-03-28T13:41:41.206Z,10.60
2023-03-28T13:44:18.699Z,10.30
2023-03-28T13:46:48.728Z,10.20
2023-03-28T13:49:21.521Z,10.80
2023-03-28T13:51:59.005Z,10.70
2023-03-28T13:54:28.357Z,9.80
2023-03-28T13:57:05.309Z,9.90
2023-03-28T13:59:36.127Z,10.50
2023-03-28T14:02:15.739Z,11.30
2023-03-28T14:04:51.897Z,11.30
2023-03-28T14:07:27.296Z,10.90
2023-03-28T14:09:56.175Z,11.10
2023-03-28T14:12:25.848Z,11.20
2023-03-28T14:14:58.903Z,10.40
2023-03-28T14:17:29.206Z,10.10
2023-03-28T14:20:01.694Z,10.00
2023-03-28T14:22:30.464Z,9.50
2023-03-28T14:25:05.080Z,9.60
2023-03-28T14:27:48.039Z,9.20
2023-03-28T14:30:18.165Z,9.10
2023-03-28T14:33:07.202Z,9.40
2023-03-28T14:35:35.815Z,9.30
2023-03-28T14:38:05.598Z,9.60
2023-03-28T14:40:39.618Z,9.70
2023-03-28T14:43:07.555Z,9.90
2023-03-28T14:45:37.704Z,9.50
2023-03-28T14:48:08.721Z,9.40
2023-03-28T14:50:38.573Z,9.40
2023-03-28T14:53:09.419Z,9.50
2023-03-28T14:55:37.519Z,9.10
2023-03-28T14:58:06.151Z,8.90
2023-03-28T15:00:42.774Z,8.90
2023-03-28T15:03:16.612Z,8.90
2023-03-28T15:05:49.795Z,9.00
2023-03-28T15:08:37.863Z,9.20
2023-03-28T15:11:09.339Z,9.40
2023-03-28T15:13:41.686Z,9.30
2023-03-28T15:16:09.148Z,9.00
2023-03-28T15:18:44.352Z,9.10
2023-03-28T15:21:11.702Z,8.90
2023-03-28T15:23:51.136Z,8.50
2023-03-28T15:26:30.021Z,8.30
2023-03-28T15:28:58.117Z,8.20
2023-03-28T15:31:26.205Z,8.20
2023-03-28T15:33:54.428Z,8.30
2023-03-28T15:36:29.912Z,8.50
2023-03-28T15:39:21.083Z,8.50
2023-03-28T15:41:49.059Z,8.50
2023-03-28T15:44:27.110Z,8.50
2023-03-28T15:47:06.656Z,8.50
2023-03-28T15:49:37.943Z,8.40
2023-03-28T15:52:24.943Z,8.30
2023-03-28T15:54:54.025Z,8.10
2023-03-28T15:57:24.621Z,8.00
2023-03-28T15:59:51.735Z,8.00
2023-03-28T16:02:20.801Z,7.90
2023-03-28T16:05:09.251Z,7.80
2023-03-28T16:07:48.531Z,7.80
2023-03-28T16:10:21.257Z,7.60
2023-03-28T16:12:51.158Z,7.50
2023-03-28T16:15:18.767Z,7.50
2023-03-28T16:17:47.231Z,7.50
2023-03-28T16:20:20.911Z,7.50
2023-03-28T16:22:48.593Z,7.50
2023-03-28T16:25:15.551Z,7.40
2023-03-28T16:27:42.869Z,7.40
2023-03-28T16:30:38.013Z,7.30
2023-03-28T16:33:06.345Z,7.30
2023-03-28T16:35:34.114Z,7.30
2023-03-28T16:38:01.945Z,7.20
2023-03-28T16:40:29.425Z,7.20
2023-03-28T16:42:56.532Z,7.20
2023-03-28T16:45:23.714Z,7.10
2023-03-28T16:47:50.854Z,7.00
2023-03-28T16:50:17.674Z,7.00
2023-03-28T16:52:44.416Z,6.90
2023-03-28T16:55:16.821Z,6.80
2023-03-28T16:57:43.740Z,6.80
2023-03-28T17:00:16.069Z,6.70
2023-03-28T17:02:43.142Z,6.70
2023-03-28T17:05:10.483Z,6.60
2023-03-28T17:07:37.215Z,6.60
2023-03-28T17:10:04.443Z,6.60
2023-03-28T17:12:31.851Z,6.50
2023-03-28T17:14:58.622Z,6.50
2023-03-28T17:17:25.617Z,6.50
2023-03-28T17:19:52.363Z,6.40
2023-03-28T17:22:19.165Z,6.40
2023-03-28T17:24:46.900Z,6.30
2023-03-28T17:27:14.413Z,6.20
2023-03-28T17:29:41.218Z,6.20
2023-03-28T17:32:08.234Z,6.10
2023-03-28T17:34:36.581Z,6.00
2023-03-28T17:37:04.235Z,5.90
2023-03-28T17:39:31.366Z,5.70
2023-03-28T17:41:58.188Z,5.70
2023-03-28T17:44:25.020Z,5.60
2023-03-28T17:46:52.068Z,5.50
2023-03-28T17:49:19.706Z,5.30
2023-03-28T17:51:46.510Z,5.30
2023-03-28T17:54:13.247Z,5.10
2023-03-28T17:56:40.184Z,5.00
2023-03-28T17:59:07.389Z,4.70
2023-03-28T18:01:34.122Z,4.60
2023-03-28T18:04:01.186Z,4.40
2023-03-28T18:06:28.118Z,4.20
2023-03-28T18:08:54.898Z,4.10
2023-03-28T18:11:22.957Z,4.00
2023-03-28T18:13:52.659Z,3.90
2023-03-28T18:16:19.525Z,3.80
2023-03-28T18:18:46.571Z,3.60
2023-03-28T18:21:13.615Z,3.60
2023-03-28T18:23:40.949Z,3.60
2023-03-28T18:26:08.135Z,3.60
2023-03-28T18:28:36.685Z,3.60
2023-03-28T18:31:14.630Z,3.50
2023-03-28T18:33:42.963Z,3.50
2023-03-28T18:36:11.197Z,3.50
2023-03-28T18:38:43.303Z,3.40
2023-03-28T18:41:12.585Z,3.40
2023-03-28T18:43:41.438Z,3.30
2023-03-28T18:46:09.818Z,3.40
2023-03-28T18:48:36.662Z,3.30
2023-03-28T18:51:06.223Z,3.30
2023-03-28T18:53:33.855Z,3.30
2023-03-28T18:56:01.377Z,3.30
2023-03-28T18:58:28.442Z,3.30
2023-03-28T19:01:00.002Z,3.30
2023-03-28T19:03:28.330Z,3.30
2023-03-28T19:05:56.395Z,3.30
2023-03-28T19:08:26.169Z,3.30
2023-03-28T19:10:58.034Z,3.20
2023-03-28T19:13:25.637Z,3.20
2023-03-28T19:16:06.994Z,3.20
2023-03-28T19:18:37.997Z,3.10
2023-03-28T19:21:05.162Z,3.10
2023-03-28T19:23:32.101Z,3.00
2023-03-28T19:25:58.832Z,3.00
2023-03-28T19:28:25.642Z,3.10
2023-03-28T19:31:03.909Z,3.00
2023-03-28T19:33:30.769Z,3.00
2023-03-28T19:35:57.716Z,3.00
2023-03-28T19:38:26.317Z,3.00
2023-03-28T19:41:15.916Z,2.90
2023-03-28T19:43:43.318Z,3.00
2023-03-28T19:46:18.967Z,3.00
2023-03-28T19:48:46.034Z,3.10
2023-03-28T19:51:14.205Z,3.10
2023-03-28T19:53:41.865Z,3.10
2023-03-28T19:56:11.331Z,3.00
2023-03-28T19:58:38.082Z,3.00
2023-03-28T20:01:04.960Z,3.00
2023-03-28T20:03:31.867Z,3.00
2023-03-28T20:06:04.695Z,3.10
2023-03-28T20:08:31.576Z,3.00
2023-03-28T20:10:58.495Z,3.00
2023-03-28T20:13:25.732Z,3.10
2023-03-28T20:15:52.796Z,3.00
2023-03-28T20:18:20.704Z,3.00
2023-03-28T20:20:59.792Z,3.10
2023-03-28T20:23:28.970Z,3.10
2023-03-28T20:25:57.346Z,3.10
2023-03-28T20:28:24.835Z,3.00
2023-03-28T20:30:53.334Z,3.00
2023-03-28T20:33:20.689Z,3.10
2023-03-28T20:35:55.060Z,3.10
2023-03-28T20:38:21.980Z,3.00
2023-03-28T20:40:49.558Z,3.00
2023-03-28T20:43:26.538Z,3.00
2023-03-28T20:45:55.076Z,3.00
2023-03-28T20:48:35.075Z,3.00
2023-03-28T20:51:05.913Z,2.90
2023-03-28T20:53:34.776Z,2.90
2023-03-28T20:56:05.383Z,2.90
2023-03-28T20:58:33.232Z,2.90
2023-03-28T21:01:01.843Z,2.90
2023-03-28T21:03:39.410Z,3.00
2023-03-28T21:06:08.901Z,3.00
2023-03-28T21:08:38.563Z,3.00
2023-03-28T21:11:05.537Z,3.00
2023-03-28T21:13:32.268Z,3.00
2023-03-28T21:15:58.975Z,3.00
2023-03-28T21:18:26.149Z,3.00
2023-03-28T21:20:52.871Z,3.10
2023-03-28T21:23:19.552Z,3.10
2023-03-28T21:25:47.922Z,3.10
2023-03-28T21:28:14.771Z,3.10
2023-03-28T21:30:41.598Z,3.10
2023-03-28T21:33:08.467Z,3.10
2023-03-28T21:35:38.126Z,3.20
2023-03-28T21:38:04.939Z,3.20
2023-03-28T21:40:31.805Z,3.20
2023-03-28T21:42:58.553Z,3.20
2023-03-28T21:45:25.373Z,3.20
2023-03-28T21:47:52.177Z,3.20
2023-03-28T21:50:18.964Z,3.20
2023-03-28T21:52:45.794Z,3.20
2023-03-28T21:55:12.548Z,3.20
2023-03-28T21:57:39.371Z,3.20
2023-03-28T22:00:14.824Z,3.30
2023-03-28T22:02:43.094Z,3.30
2023-03-28T22:05:21.977Z,3.30
2023-03-28T22:07:53.385Z,3.30
2023-03-28T22:10:21.317Z,3.40
2023-03-28T22:12:48.124Z,3.40
2023-03-28T22:15:15.069Z,3.30
2023-03-28T22:17:43.013Z,3.40
2023-03-28T22:20:12.165Z,3.40
2023-03-28T22:22:42.485Z,3.30
2023-03-28T22:25:10.927Z,3.30
2023-03-28T22:27:38.699Z,3.30
2023-03-28T22:30:09.605Z,3.40
2023-03-28T22:32:38.004Z,3.40
2023-03-28T22:35:05.906Z,3.40
2023-03-28T22:37:33.256Z,3.40
2023-03-28T22:40:00.436Z,3.40
2023-03-28T22:42:27.600Z,3.50
2023-03-28T22:44:54.388Z,3.50
2023-03-28T22:47:21.226Z,3.50
2023-03-28T22:49:47.990Z,3.50
2023-03-28T22:52:14.775Z,3.50
2023-03-28T22:54:42.685Z,3.60
2023-03-28T22:57:09.673Z,3.50
2023-03-28T22:59:36.567Z,3.60
2023-03-28T23:02:03.888Z,3.50
2023-03-28T23:04:33.040Z,3.50
2023-03-28T23:06:59.810Z,3.50
2023-03-28T23:09:27.939Z,3.50
2023-03-28T23:11:55.096Z,3.50
2023-03-28T23:14:22.251Z,3.50
2023-03-28T23:16:50.097Z,3.50
2023-03-28T23:19:16.866Z,3.50
2023-03-28T23:21:43.966Z,3.50
2023-03-28T23:24:11.834Z,3.60
2023-03-28T23:26:38.555Z,3.60
2023-03-28T23:29:05.338Z,3.60
2023-03-28T23:31:32.096Z,3.60
2023-03-28T23:33:58.998Z,3.80
2023-03-28T23:36:25.933Z,3.80
2023-03-28T23:38:53.073Z,3.90
2023-03-28T23:41:19.891Z,4.00
2023-03-28T23:43:46.707Z,4.40
2023-03-28T23:46:14.235Z,4.50
2023-03-28T23:48:41.508Z,4.60
2023-03-28T23:51:09.022Z,4.60
2023-03-28T23:53:36.302Z,4.60
2023-03-28T23:56:03.617Z,4.50
2023-03-28T23:58:30.319Z,4.40
